sensor_id;sensor_type;location;lat;lon;timestamp;P1;durP1;ratioP1;P2;durP2;ratioP2
70414;SDS011;57837;52.064;113.478;2023-02-12T00:01:11;14.35;;;6.35;;
70414;SDS011;57837;52.064;113.478;2023-02-12T00:04:15;14.13;;;8.02;;
70414;SDS011;57837;52.064;113.478;2023-02-12T00:07:19;22.83;;;9.77;;
70414;SDS011;57837;52.064;113.478;2023-02-12T00:10:23;27.77;;;10.60;;
70414;SDS011;57837;52.064;113.478;2023-02-12T00:13:29;21.58;;;8.07;;
70414;SDS011;57837;52.064;113.478;2023-02-12T00:16:32;29.00;;;10.32;;
70414;SDS011;57837;52.064;113.478;2023-02-12T00:19:36;30.27;;;11.30;;
70414;SDS011;57837;52.064;113.478;2023-02-12T00:22:40;21.92;;;8.55;;
70414;SDS011;57837;52.064;113.478;2023-02-12T00:25:44;31.02;;;11.00;;
70414;SDS011;57837;52.064;113.478;2023-02-12T00:28:48;33.57;;;12.47;;
70414;SDS011;57837;52.064;113.478;2023-02-12T00:31:54;19.85;;;8.65;;
70414;SDS011;57837;52.064;113.478;2023-02-12T00:35:00;20.48;;;8.90;;
70414;SDS011;57837;52.064;113.478;2023-02-12T00:38:04;17.00;;;6.95;;
70414;SDS011;57837;52.064;113.478;2023-02-12T00:41:06;25.35;;;7.45;;
70414;SDS011;57837;52.064;113.478;2023-02-12T00:44:10;12.82;;;5.15;;
70414;SDS011;57837;52.064;113.478;2023-02-12T00:47:14;22.52;;;7.97;;
70414;SDS011;57837;52.064;113.478;2023-02-12T00:50:18;17.47;;;7.20;;
70414;SDS011;57837;52.064;113.478;2023-02-12T00:53:21;16.58;;;7.93;;
70414;SDS011;57837;52.064;113.478;2023-02-12T00:56:25;22.58;;;9.43;;
70414;SDS011;57837;52.064;113.478;2023-02-12T00:59:28;26.90;;;10.17;;
70414;SDS011;57837;52.064;113.478;2023-02-12T01:02:31;15.73;;;8.35;;
70414;SDS011;57837;52.064;113.478;2023-02-12T01:05:35;29.00;;;8.70;;
70414;SDS011;57837;52.064;113.478;2023-02-12T01:08:39;32.45;;;11.73;;
70414;SDS011;57837;52.064;113.478;2023-02-12T01:11:42;32.58;;;11.32;;
70414;SDS011;57837;52.064;113.478;2023-02-12T01:14:45;15.63;;;7.13;;
70414;SDS011;57837;52.064;113.478;2023-02-12T01:17:51;17.77;;;6.80;;
70414;SDS011;57837;52.064;113.478;2023-02-12T01:20:55;16.93;;;6.20;;
70414;SDS011;57837;52.064;113.478;2023-02-12T01:24:00;20.63;;;8.07;;
70414;SDS011;57837;52.064;113.478;2023-02-12T01:27:04;15.07;;;6.70;;
70414;SDS011;57837;52.064;113.478;2023-02-12T01:30:09;19.73;;;6.87;;
70414;SDS011;57837;52.064;113.478;2023-02-12T01:33:13;16.98;;;6.70;;
70414;SDS011;57837;52.064;113.478;2023-02-12T01:36:17;14.88;;;6.32;;
70414;SDS011;57837;52.064;113.478;2023-02-12T01:39:22;15.23;;;6.22;;
70414;SDS011;57837;52.064;113.478;2023-02-12T01:42:25;19.48;;;8.00;;
70414;SDS011;57837;52.064;113.478;2023-02-12T01:45:37;23.55;;;7.72;;
70414;SDS011;57837;52.064;113.478;2023-02-12T01:48:47;12.98;;;6.75;;
70414;SDS011;57837;52.064;113.478;2023-02-12T01:51:52;12.90;;;5.27;;
70414;SDS011;57837;52.064;113.478;2023-02-12T01:55:01;15.05;;;7.30;;
70414;SDS011;57837;52.064;113.478;2023-02-12T01:58:09;19.15;;;7.10;;
70414;SDS011;57837;52.064;113.478;2023-02-12T02:01:12;15.37;;;5.70;;
70414;SDS011;57837;52.064;113.478;2023-02-12T02:04:23;20.73;;;8.32;;
70414;SDS011;57837;52.064;113.478;2023-02-12T02:07:29;21.52;;;8.70;;
70414;SDS011;57837;52.064;113.478;2023-02-12T02:10:33;25.75;;;8.95;;
70414;SDS011;57837;52.064;113.478;2023-02-12T02:13:36;22.65;;;7.03;;
70414;SDS011;57837;52.064;113.478;2023-02-12T02:17:05;28.80;;;10.98;;
70414;SDS011;57837;52.064;113.478;2023-02-12T02:27:19;27.08;;;9.50;;
70414;SDS011;57837;52.064;113.478;2023-02-12T02:30:42;28.63;;;9.93;;
70414;SDS011;57837;52.064;113.478;2023-02-12T02:40:23;18.48;;;7.13;;
70414;SDS011;57837;52.064;113.478;2023-02-12T02:43:35;30.20;;;8.80;;
70414;SDS011;57837;52.064;113.478;2023-02-12T02:46:50;37.90;;;10.98;;
70414;SDS011;57837;52.064;113.478;2023-02-12T02:49:56;29.77;;;11.88;;
70414;SDS011;57837;52.064;113.478;2023-02-12T02:53:09;32.72;;;10.32;;
70414;SDS011;57837;52.064;113.478;2023-02-12T02:56:16;21.53;;;8.33;;
70414;SDS011;57837;52.064;113.478;2023-02-12T02:59:24;25.13;;;8.45;;
70414;SDS011;57837;52.064;113.478;2023-02-12T03:02:37;21.83;;;9.20;;
70414;SDS011;57837;52.064;113.478;2023-02-12T03:05:45;29.30;;;10.18;;
70414;SDS011;57837;52.064;113.478;2023-02-12T03:08:55;21.33;;;8.55;;
70414;SDS011;57837;52.064;113.478;2023-02-12T03:12:08;22.80;;;8.25;;
70414;SDS011;57837;52.064;113.478;2023-02-12T03:18:27;19.03;;;7.10;;
70414;SDS011;57837;52.064;113.478;2023-02-12T03:22:23;17.00;;;6.45;;
70414;SDS011;57837;52.064;113.478;2023-02-12T03:25:12;21.10;;;8.60;;
70414;SDS011;57837;52.064;113.478;2023-02-12T03:28:22;14.52;;;5.93;;
70414;SDS011;57837;52.064;113.478;2023-02-12T03:31:52;16.65;;;6.65;;
70414;SDS011;57837;52.064;113.478;2023-02-12T03:35:02;16.15;;;6.90;;
70414;SDS011;57837;52.064;113.478;2023-02-12T03:38:29;11.25;;;4.88;;
70414;SDS011;57837;52.064;113.478;2023-02-12T03:41:45;12.33;;;5.17;;
70414;SDS011;57837;52.064;113.478;2023-02-12T03:48:35;14.93;;;6.50;;
70414;SDS011;57837;52.064;113.478;2023-02-12T03:51:59;18.70;;;6.13;;
70414;SDS011;57837;52.064;113.478;2023-02-12T03:55:02;19.13;;;7.00;;
70414;SDS011;57837;52.064;113.478;2023-02-12T03:58:08;19.02;;;6.57;;
70414;SDS011;57837;52.064;113.478;2023-02-12T04:01:13;18.05;;;7.47;;
70414;SDS011;57837;52.064;113.478;2023-02-12T04:04:17;19.58;;;7.95;;
70414;SDS011;57837;52.064;113.478;2023-02-12T04:07:20;21.67;;;7.83;;
70414;SDS011;57837;52.064;113.478;2023-02-12T04:11:11;20.85;;;7.82;;
70414;SDS011;57837;52.064;113.478;2023-02-12T04:14:05;18.77;;;7.80;;
70414;SDS011;57837;52.064;113.478;2023-02-12T04:17:21;14.55;;;6.57;;
70414;SDS011;57837;52.064;113.478;2023-02-12T04:30:37;17.73;;;6.30;;
70414;SDS011;57837;52.064;113.478;2023-02-12T04:33:52;15.00;;;5.93;;
70414;SDS011;57837;52.064;113.478;2023-02-12T04:37:09;27.98;;;9.05;;
70414;SDS011;57837;52.064;113.478;2023-02-12T04:40:15;18.27;;;7.43;;
70414;SDS011;57837;52.064;113.478;2023-02-12T04:43:27;16.00;;;7.00;;
70414;SDS011;57837;52.064;113.478;2023-02-12T04:46:31;23.70;;;7.30;;
70414;SDS011;57837;52.064;113.478;2023-02-12T04:49:35;21.67;;;7.85;;
70414;SDS011;57837;52.064;113.478;2023-02-12T04:52:39;21.08;;;8.52;;
70414;SDS011;57837;52.064;113.478;2023-02-12T04:55:42;16.73;;;6.20;;
70414;SDS011;57837;52.064;113.478;2023-02-12T04:58:46;14.18;;;6.32;;
70414;SDS011;57837;52.064;113.478;2023-02-12T05:01:49;20.23;;;7.43;;
70414;SDS011;57837;52.064;113.478;2023-02-12T05:04:52;18.75;;;8.02;;
70414;SDS011;57837;52.064;113.478;2023-02-12T05:07:55;21.23;;;8.40;;
70414;SDS011;57837;52.064;113.478;2023-02-12T05:11:21;16.67;;;6.85;;
70414;SDS011;57837;52.064;113.478;2023-02-12T05:14:25;17.88;;;6.25;;
70414;SDS011;57837;52.064;113.478;2023-02-12T05:17:29;16.02;;;6.47;;
70414;SDS011;57837;52.064;113.478;2023-02-12T05:20:32;14.53;;;5.63;;
70414;SDS011;57837;52.064;113.478;2023-02-12T05:23:36;15.95;;;6.00;;
70414;SDS011;57837;52.064;113.478;2023-02-12T05:26:41;15.50;;;5.82;;
70414;SDS011;57837;52.064;113.478;2023-02-12T05:29:44;12.67;;;4.80;;
70414;SDS011;57837;52.064;113.478;2023-02-12T05:32:48;15.80;;;6.05;;
70414;SDS011;57837;52.064;113.478;2023-02-12T05:36:18;12.73;;;5.50;;
70414;SDS011;57837;52.064;113.478;2023-02-12T05:39:23;15.20;;;6.25;;
70414;SDS011;57837;52.064;113.478;2023-02-12T05:42:28;16.63;;;6.10;;
70414;SDS011;57837;52.064;113.478;2023-02-12T05:45:32;13.05;;;5.22;;
70414;SDS011;57837;52.064;113.478;2023-02-12T05:48:36;11.82;;;4.65;;
70414;SDS011;57837;52.064;113.478;2023-02-12T05:51:39;22.07;;;7.77;;
70414;SDS011;57837;52.064;113.478;2023-02-12T05:54:43;11.70;;;5.30;;
70414;SDS011;57837;52.064;113.478;2023-02-12T05:57:47;20.17;;;6.10;;
70414;SDS011;57837;52.064;113.478;2023-02-12T06:00:50;12.80;;;5.57;;
70414;SDS011;57837;52.064;113.478;2023-02-12T06:03:54;13.53;;;5.33;;
70414;SDS011;57837;52.064;113.478;2023-02-12T06:06:58;18.92;;;6.43;;
70414;SDS011;57837;52.064;113.478;2023-02-12T06:10:02;20.38;;;7.65;;
70414;SDS011;57837;52.064;113.478;2023-02-12T06:13:05;17.80;;;6.70;;
70414;SDS011;57837;52.064;113.478;2023-02-12T06:16:22;14.68;;;4.78;;
70414;SDS011;57837;52.064;113.478;2023-02-12T06:19:27;19.15;;;6.90;;
70414;SDS011;57837;52.064;113.478;2023-02-12T06:22:30;20.00;;;5.25;;
70414;SDS011;57837;52.064;113.478;2023-02-12T06:25:34;13.70;;;5.22;;
70414;SDS011;57837;52.064;113.478;2023-02-12T06:28:39;17.13;;;6.70;;
70414;SDS011;57837;52.064;113.478;2023-02-12T06:31:42;12.85;;;5.00;;
70414;SDS011;57837;52.064;113.478;2023-02-12T06:34:46;13.73;;;5.70;;
70414;SDS011;57837;52.064;113.478;2023-02-12T06:37:49;14.85;;;6.43;;
70414;SDS011;57837;52.064;113.478;2023-02-12T06:40:53;20.10;;;7.43;;
70414;SDS011;57837;52.064;113.478;2023-02-12T06:43:57;57.60;;;22.33;;
70414;SDS011;57837;52.064;113.478;2023-02-12T06:47:00;36.88;;;14.05;;
70414;SDS011;57837;52.064;113.478;2023-02-12T06:50:04;32.08;;;14.75;;
70414;SDS011;57837;52.064;113.478;2023-02-12T06:53:09;27.83;;;11.52;;
70414;SDS011;57837;52.064;113.478;2023-02-12T06:56:12;21.80;;;8.50;;
70414;SDS011;57837;52.064;113.478;2023-02-12T06:59:16;23.45;;;7.22;;
70414;SDS011;57837;52.064;113.478;2023-02-12T07:02:20;28.13;;;8.50;;
70414;SDS011;57837;52.064;113.478;2023-02-12T07:05:23;11.00;;;4.70;;
70414;SDS011;57837;52.064;113.478;2023-02-12T07:08:26;12.77;;;4.60;;
70414;SDS011;57837;52.064;113.478;2023-02-12T07:11:31;16.70;;;6.40;;
70414;SDS011;57837;52.064;113.478;2023-02-12T07:14:38;18.17;;;7.97;;
70414;SDS011;57837;52.064;113.478;2023-02-12T07:17:42;21.13;;;8.80;;
70414;SDS011;57837;52.064;113.478;2023-02-12T07:20:45;21.98;;;7.38;;
70414;SDS011;57837;52.064;113.478;2023-02-12T07:23:49;40.10;;;12.68;;
70414;SDS011;57837;52.064;113.478;2023-02-12T07:26:53;29.02;;;11.30;;
70414;SDS011;57837;52.064;113.478;2023-02-12T07:29:56;20.45;;;7.07;;
70414;SDS011;57837;52.064;113.478;2023-02-12T07:33:00;15.07;;;5.80;;
70414;SDS011;57837;52.064;113.478;2023-02-12T07:36:04;14.63;;;5.53;;
70414;SDS011;57837;52.064;113.478;2023-02-12T07:39:10;19.02;;;6.85;;
70414;SDS011;57837;52.064;113.478;2023-02-12T07:42:15;20.65;;;7.30;;
70414;SDS011;57837;52.064;113.478;2023-02-12T07:45:23;25.20;;;7.17;;
70414;SDS011;57837;52.064;113.478;2023-02-12T07:48:26;18.13;;;6.47;;
70414;SDS011;57837;52.064;113.478;2023-02-12T07:51:31;13.63;;;4.60;;
70414;SDS011;57837;52.064;113.478;2023-02-12T07:54:36;14.80;;;5.55;;
70414;SDS011;57837;52.064;113.478;2023-02-12T07:57:40;15.15;;;5.60;;
70414;SDS011;57837;52.064;113.478;2023-02-12T08:00:43;14.02;;;6.65;;
70414;SDS011;57837;52.064;113.478;2023-02-12T08:03:47;17.60;;;6.55;;
70414;SDS011;57837;52.064;113.478;2023-02-12T08:06:52;22.83;;;6.87;;
70414;SDS011;57837;52.064;113.478;2023-02-12T08:09:57;21.95;;;7.97;;
70414;SDS011;57837;52.064;113.478;2023-02-12T08:13:00;35.65;;;12.93;;
70414;SDS011;57837;52.064;113.478;2023-02-12T08:16:06;29.53;;;10.40;;
70414;SDS011;57837;52.064;113.478;2023-02-12T08:19:11;20.70;;;8.45;;
70414;SDS011;57837;52.064;113.478;2023-02-12T08:22:23;21.27;;;7.95;;
70414;SDS011;57837;52.064;113.478;2023-02-12T08:25:26;23.08;;;8.45;;
70414;SDS011;57837;52.064;113.478;2023-02-12T08:28:30;16.70;;;6.70;;
70414;SDS011;57837;52.064;113.478;2023-02-12T08:31:35;17.15;;;7.10;;
70414;SDS011;57837;52.064;113.478;2023-02-12T08:34:45;23.35;;;8.52;;
70414;SDS011;57837;52.064;113.478;2023-02-12T08:37:49;29.47;;;10.40;;
70414;SDS011;57837;52.064;113.478;2023-02-12T08:40:54;26.67;;;10.73;;
70414;SDS011;57837;52.064;113.478;2023-02-12T08:43:59;26.65;;;9.30;;
70414;SDS011;57837;52.064;113.478;2023-02-12T08:47:03;30.60;;;11.57;;
70414;SDS011;57837;52.064;113.478;2023-02-12T08:50:08;22.83;;;8.32;;
70414;SDS011;57837;52.064;113.478;2023-02-12T08:53:12;24.58;;;9.25;;
70414;SDS011;57837;52.064;113.478;2023-02-12T08:56:16;18.58;;;7.00;;
70414;SDS011;57837;52.064;113.478;2023-02-12T08:59:44;22.02;;;9.00;;
70414;SDS011;57837;52.064;113.478;2023-02-12T09:02:50;24.08;;;8.75;;
70414;SDS011;57837;52.064;113.478;2023-02-12T09:05:53;19.90;;;7.32;;
70414;SDS011;57837;52.064;113.478;2023-02-12T09:08:57;16.73;;;8.17;;
70414;SDS011;57837;52.064;113.478;2023-02-12T09:12:00;22.48;;;8.77;;
70414;SDS011;57837;52.064;113.478;2023-02-12T09:15:03;20.77;;;8.18;;
70414;SDS011;57837;52.064;113.478;2023-02-12T09:18:07;16.50;;;7.30;;
70414;SDS011;57837;52.064;113.478;2023-02-12T09:21:12;16.52;;;5.85;;
70414;SDS011;57837;52.064;113.478;2023-02-12T09:24:18;24.55;;;9.77;;
70414;SDS011;57837;52.064;113.478;2023-02-12T09:27:21;25.65;;;8.43;;
70414;SDS011;57837;52.064;113.478;2023-02-12T09:30:25;31.55;;;10.65;;
70414;SDS011;57837;52.064;113.478;2023-02-12T09:33:29;18.70;;;7.18;;
70414;SDS011;57837;52.064;113.478;2023-02-12T09:36:33;13.30;;;6.95;;
70414;SDS011;57837;52.064;113.478;2023-02-12T09:39:38;29.57;;;8.93;;
70414;SDS011;57837;52.064;113.478;2023-02-12T09:42:47;20.90;;;8.02;;
70414;SDS011;57837;52.064;113.478;2023-02-12T09:45:57;27.13;;;8.27;;
70414;SDS011;57837;52.064;113.478;2023-02-12T09:49:07;20.20;;;8.20;;
70414;SDS011;57837;52.064;113.478;2023-02-12T09:52:20;29.45;;;10.48;;
70414;SDS011;57837;52.064;113.478;2023-02-12T09:55:30;27.00;;;10.85;;
70414;SDS011;57837;52.064;113.478;2023-02-12T09:58:46;34.75;;;10.57;;
70414;SDS011;57837;52.064;113.478;2023-02-12T10:01:51;21.27;;;8.00;;
70414;SDS011;57837;52.064;113.478;2023-02-12T10:04:54;23.58;;;8.38;;
70414;SDS011;57837;52.064;113.478;2023-02-12T10:11:21;17.00;;;6.97;;
70414;SDS011;57837;52.064;113.478;2023-02-12T10:14:28;23.75;;;7.90;;
70414;SDS011;57837;52.064;113.478;2023-02-12T10:17:54;21.67;;;7.32;;
70414;SDS011;57837;52.064;113.478;2023-02-12T10:24:22;18.27;;;5.68;;
70414;SDS011;57837;52.064;113.478;2023-02-12T10:27:43;14.27;;;4.55;;
70414;SDS011;57837;52.064;113.478;2023-02-12T10:37:29;14.18;;;6.18;;
70414;SDS011;57837;52.064;113.478;2023-02-12T10:40:38;17.35;;;6.88;;
70414;SDS011;57837;52.064;113.478;2023-02-12T10:43:47;15.30;;;5.90;;
70414;SDS011;57837;52.064;113.478;2023-02-12T10:46:50;19.83;;;6.65;;
70414;SDS011;57837;52.064;113.478;2023-02-12T10:49:56;20.67;;;7.22;;
70414;SDS011;57837;52.064;113.478;2023-02-12T10:53:01;26.63;;;9.10;;
70414;SDS011;57837;52.064;113.478;2023-02-12T10:59:21;18.50;;;7.18;;
70414;SDS011;57837;52.064;113.478;2023-02-12T11:02:30;23.48;;;9.32;;
70414;SDS011;57837;52.064;113.478;2023-02-12T11:05:35;51.55;;;18.63;;
70414;SDS011;57837;52.064;113.478;2023-02-12T11:08:39;30.38;;;12.30;;
70414;SDS011;57837;52.064;113.478;2023-02-12T11:11:44;26.90;;;11.35;;
70414;SDS011;57837;52.064;113.478;2023-02-12T11:14:54;27.57;;;7.20;;
70414;SDS011;57837;52.064;113.478;2023-02-12T11:18:01;28.02;;;10.93;;
70414;SDS011;57837;52.064;113.478;2023-02-12T11:21:07;21.13;;;7.85;;
70414;SDS011;57837;52.064;113.478;2023-02-12T11:24:27;17.80;;;7.90;;
70414;SDS011;57837;52.064;113.478;2023-02-12T11:27:36;43.72;;;15.40;;
70414;SDS011;57837;52.064;113.478;2023-02-12T11:30:49;51.80;;;18.58;;
70414;SDS011;57837;52.064;113.478;2023-02-12T11:34:23;29.08;;;11.77;;
70414;SDS011;57837;52.064;113.478;2023-02-12T11:37:27;54.35;;;22.20;;
70414;SDS011;57837;52.064;113.478;2023-02-12T11:40:31;25.77;;;10.52;;
70414;SDS011;57837;52.064;113.478;2023-02-12T11:43:35;38.50;;;15.50;;
70414;SDS011;57837;52.064;113.478;2023-02-12T11:46:44;33.70;;;14.27;;
70414;SDS011;57837;52.064;113.478;2023-02-12T11:50:37;35.30;;;13.50;;
70414;SDS011;57837;52.064;113.478;2023-02-12T11:56:59;31.10;;;12.03;;
70414;SDS011;57837;52.064;113.478;2023-02-12T12:00:37;52.13;;;20.13;;
70414;SDS011;57837;52.064;113.478;2023-02-12T12:07:27;32.30;;;10.68;;
70414;SDS011;57837;52.064;113.478;2023-02-12T12:11:17;40.78;;;14.60;;
70414;SDS011;57837;52.064;113.478;2023-02-12T12:14:07;27.38;;;9.95;;
70414;SDS011;57837;52.064;113.478;2023-02-12T12:17:12;36.03;;;9.63;;
70414;SDS011;57837;52.064;113.478;2023-02-12T12:20:52;35.53;;;12.80;;
70414;SDS011;57837;52.064;113.478;2023-02-12T12:24:02;39.83;;;14.23;;
70414;SDS011;57837;52.064;113.478;2023-02-12T12:27:20;61.55;;;22.88;;
70414;SDS011;57837;52.064;113.478;2023-02-12T12:30:53;63.87;;;24.67;;
70414;SDS011;57837;52.064;113.478;2023-02-12T12:34:10;71.40;;;27.02;;
70414;SDS011;57837;52.064;113.478;2023-02-12T12:38:06;49.95;;;20.38;;
70414;SDS011;57837;52.064;113.478;2023-02-12T12:41:28;30.50;;;11.93;;
70414;SDS011;57837;52.064;113.478;2023-02-12T12:52:03;68.97;;;22.10;;
70414;SDS011;57837;52.064;113.478;2023-02-12T13:09:07;13.48;;;4.07;;
70414;SDS011;57837;52.064;113.478;2023-02-12T13:12:36;15.60;;;6.45;;
70414;SDS011;57837;52.064;113.478;2023-02-12T13:22:52;18.90;;;7.38;;
70414;SDS011;57837;52.064;113.478;2023-02-12T13:29:20;25.27;;;7.33;;
70414;SDS011;57837;52.064;113.478;2023-02-12T13:32:28;24.42;;;11.50;;
70414;SDS011;57837;52.064;113.478;2023-02-12T13:35:35;35.30;;;9.13;;
70414;SDS011;57837;52.064;113.478;2023-02-12T13:58:50;15.57;;;5.55;;
70414;SDS011;57837;52.064;113.478;2023-02-12T14:02:43;21.83;;;7.13;;
70414;SDS011;57837;52.064;113.478;2023-02-12T14:05:28;8.75;;;3.22;;
70414;SDS011;57837;52.064;113.478;2023-02-12T14:08:36;25.27;;;6.93;;
70414;SDS011;57837;52.064;113.478;2023-02-12T14:11:47;12.57;;;4.73;;
70414;SDS011;57837;52.064;113.478;2023-02-12T14:18:32;30.95;;;11.10;;
70414;SDS011;57837;52.064;113.478;2023-02-12T14:21:37;11.48;;;4.25;;
70414;SDS011;57837;52.064;113.478;2023-02-12T14:24:45;18.90;;;7.60;;
70414;SDS011;57837;52.064;113.478;2023-02-12T14:34:35;12.10;;;3.80;;
70414;SDS011;57837;52.064;113.478;2023-02-12T14:37:40;7.88;;;3.38;;
70414;SDS011;57837;52.064;113.478;2023-02-12T14:40:47;24.27;;;4.13;;
70414;SDS011;57837;52.064;113.478;2023-02-12T14:44:30;17.77;;;3.93;;
70414;SDS011;57837;52.064;113.478;2023-02-12T14:50:36;7.47;;;3.45;;
70414;SDS011;57837;52.064;113.478;2023-02-12T14:53:43;9.88;;;3.30;;
70414;SDS011;57837;52.064;113.478;2023-02-12T14:56:49;12.77;;;3.88;;
70414;SDS011;57837;52.064;113.478;2023-02-12T15:06:47;12.23;;;4.70;;
70414;SDS011;57837;52.064;113.478;2023-02-12T15:10:01;11.75;;;4.05;;
70414;SDS011;57837;52.064;113.478;2023-02-12T15:16:44;14.00;;;7.03;;
70414;SDS011;57837;52.064;113.478;2023-02-12T15:19:56;15.80;;;5.97;;
70414;SDS011;57837;52.064;113.478;2023-02-12T15:23:27;20.63;;;5.60;;
70414;SDS011;57837;52.064;113.478;2023-02-12T15:26:46;5.80;;;2.47;;
70414;SDS011;57837;52.064;113.478;2023-02-12T15:29:51;24.20;;;9.48;;
70414;SDS011;57837;52.064;113.478;2023-02-12T15:32:57;18.63;;;5.97;;
70414;SDS011;57837;52.064;113.478;2023-02-12T15:36:04;22.77;;;7.20;;
70414;SDS011;57837;52.064;113.478;2023-02-12T15:39:15;18.33;;;9.10;;
70414;SDS011;57837;52.064;113.478;2023-02-12T15:45:36;25.75;;;8.93;;
70414;SDS011;57837;52.064;113.478;2023-02-12T15:48:41;19.13;;;6.53;;
70414;SDS011;57837;52.064;113.478;2023-02-12T15:51:45;19.38;;;6.32;;
70414;SDS011;57837;52.064;113.478;2023-02-12T15:54:48;25.38;;;7.90;;
70414;SDS011;57837;52.064;113.478;2023-02-12T15:57:54;15.55;;;5.82;;
70414;SDS011;57837;52.064;113.478;2023-02-12T16:01:00;22.45;;;6.82;;
70414;SDS011;57837;52.064;113.478;2023-02-12T16:04:06;12.40;;;4.38;;
70414;SDS011;57837;52.064;113.478;2023-02-12T16:07:10;13.52;;;4.28;;
70414;SDS011;57837;52.064;113.478;2023-02-12T16:10:17;26.17;;;8.17;;
70414;SDS011;57837;52.064;113.478;2023-02-12T16:13:32;15.60;;;3.30;;
70414;SDS011;57837;52.064;113.478;2023-02-12T16:16:45;10.07;;;3.47;;
70414;SDS011;57837;52.064;113.478;2023-02-12T16:23:04;17.38;;;4.90;;
70414;SDS011;57837;52.064;113.478;2023-02-12T16:26:14;14.38;;;4.65;;
70414;SDS011;57837;52.064;113.478;2023-02-12T16:29:23;13.13;;;4.03;;
70414;SDS011;57837;52.064;113.478;2023-02-12T16:32:29;14.27;;;4.32;;
70414;SDS011;57837;52.064;113.478;2023-02-12T16:35:40;14.25;;;4.65;;
70414;SDS011;57837;52.064;113.478;2023-02-12T16:38:44;14.75;;;3.90;;
70414;SDS011;57837;52.064;113.478;2023-02-12T16:41:50;14.73;;;4.53;;
70414;SDS011;57837;52.064;113.478;2023-02-12T16:44:57;20.52;;;4.78;;
70414;SDS011;57837;52.064;113.478;2023-02-12T16:48:01;10.98;;;3.90;;
70414;SDS011;57837;52.064;113.478;2023-02-12T16:54:34;14.32;;;3.03;;
70414;SDS011;57837;52.064;113.478;2023-02-12T16:57:38;16.88;;;3.90;;
70414;SDS011;57837;52.064;113.478;2023-02-12T17:00:41;9.20;;;3.03;;
70414;SDS011;57837;52.064;113.478;2023-02-12T17:03:44;8.60;;;2.85;;
70414;SDS011;57837;52.064;113.478;2023-02-12T17:06:54;12.18;;;3.28;;
70414;SDS011;57837;52.064;113.478;2023-02-12T17:09:58;10.73;;;3.45;;
70414;SDS011;57837;52.064;113.478;2023-02-12T17:13:03;19.43;;;6.70;;
70414;SDS011;57837;52.064;113.478;2023-02-12T17:16:06;18.17;;;6.00;;
70414;SDS011;57837;52.064;113.478;2023-02-12T17:19:14;18.25;;;5.50;;
70414;SDS011;57837;52.064;113.478;2023-02-12T17:22:22;15.83;;;5.90;;
70414;SDS011;57837;52.064;113.478;2023-02-12T17:25:27;25.42;;;10.48;;
70414;SDS011;57837;52.064;113.478;2023-02-12T17:28:32;31.95;;;10.65;;
70414;SDS011;57837;52.064;113.478;2023-02-12T17:31:36;43.90;;;10.68;;
70414;SDS011;57837;52.064;113.478;2023-02-12T17:34:40;15.80;;;7.68;;
70414;SDS011;57837;52.064;113.478;2023-02-12T17:37:50;35.95;;;10.73;;
70414;SDS011;57837;52.064;113.478;2023-02-12T17:40:54;18.35;;;6.85;;
70414;SDS011;57837;52.064;113.478;2023-02-12T17:43:58;24.80;;;9.63;;
70414;SDS011;57837;52.064;113.478;2023-02-12T17:47:01;24.42;;;8.45;;
70414;SDS011;57837;52.064;113.478;2023-02-12T17:50:08;24.25;;;8.18;;
70414;SDS011;57837;52.064;113.478;2023-02-12T17:53:14;29.87;;;9.37;;
70414;SDS011;57837;52.064;113.478;2023-02-12T17:56:19;26.80;;;10.40;;
70414;SDS011;57837;52.064;113.478;2023-02-12T17:59:25;18.67;;;6.93;;
70414;SDS011;57837;52.064;113.478;2023-02-12T18:02:29;19.50;;;7.38;;
70414;SDS011;57837;52.064;113.478;2023-02-12T18:05:32;23.77;;;7.15;;
70414;SDS011;57837;52.064;113.478;2023-02-12T18:08:36;17.48;;;5.90;;
70414;SDS011;57837;52.064;113.478;2023-02-12T18:11:39;19.05;;;6.10;;
70414;SDS011;57837;52.064;113.478;2023-02-12T18:14:44;21.63;;;7.47;;
70414;SDS011;57837;52.064;113.478;2023-02-12T18:17:47;18.75;;;7.78;;
70414;SDS011;57837;52.064;113.478;2023-02-12T18:20:51;23.40;;;7.35;;
70414;SDS011;57837;52.064;113.478;2023-02-12T18:23:54;16.93;;;5.97;;
70414;SDS011;57837;52.064;113.478;2023-02-12T18:26:58;25.80;;;6.10;;
70414;SDS011;57837;52.064;113.478;2023-02-12T18:30:02;19.17;;;5.03;;
70414;SDS011;57837;52.064;113.478;2023-02-12T18:33:06;19.42;;;5.35;;
70414;SDS011;57837;52.064;113.478;2023-02-12T18:36:10;7.30;;;2.63;;
70414;SDS011;57837;52.064;113.478;2023-02-12T18:39:16;4.13;;;1.88;;
70414;SDS011;57837;52.064;113.478;2023-02-12T18:42:19;11.93;;;3.38;;
70414;SDS011;57837;52.064;113.478;2023-02-12T18:45:23;10.43;;;2.47;;
70414;SDS011;57837;52.064;113.478;2023-02-12T18:48:26;12.82;;;4.35;;
70414;SDS011;57837;52.064;113.478;2023-02-12T18:51:31;10.38;;;2.83;;
70414;SDS011;57837;52.064;113.478;2023-02-12T18:54:37;13.53;;;3.33;;
70414;SDS011;57837;52.064;113.478;2023-02-12T18:57:40;14.80;;;3.67;;
70414;SDS011;57837;52.064;113.478;2023-02-12T19:00:44;14.50;;;3.22;;
70414;SDS011;57837;52.064;113.478;2023-02-12T19:03:51;11.50;;;2.35;;
70414;SDS011;57837;52.064;113.478;2023-02-12T19:06:56;15.05;;;2.55;;
70414;SDS011;57837;52.064;113.478;2023-02-12T19:10:00;17.63;;;4.10;;
70414;SDS011;57837;52.064;113.478;2023-02-12T19:13:03;15.27;;;3.97;;
70414;SDS011;57837;52.064;113.478;2023-02-12T19:16:10;9.60;;;3.30;;
70414;SDS011;57837;52.064;113.478;2023-02-12T19:19:16;14.63;;;3.17;;
70414;SDS011;57837;52.064;113.478;2023-02-12T19:22:24;14.10;;;3.00;;
70414;SDS011;57837;52.064;113.478;2023-02-12T19:25:27;16.07;;;4.33;;
70414;SDS011;57837;52.064;113.478;2023-02-12T19:28:30;20.98;;;4.57;;
70414;SDS011;57837;52.064;113.478;2023-02-12T19:31:35;11.75;;;3.63;;
70414;SDS011;57837;52.064;113.478;2023-02-12T19:34:40;17.48;;;4.03;;
70414;SDS011;57837;52.064;113.478;2023-02-12T19:37:43;8.05;;;1.88;;
70414;SDS011;57837;52.064;113.478;2023-02-12T19:40:47;9.05;;;2.80;;
70414;SDS011;57837;52.064;113.478;2023-02-12T19:43:57;9.30;;;3.03;;
70414;SDS011;57837;52.064;113.478;2023-02-12T19:47:02;6.27;;;2.07;;
70414;SDS011;57837;52.064;113.478;2023-02-12T19:50:05;7.45;;;2.45;;
70414;SDS011;57837;52.064;113.478;2023-02-12T19:53:09;8.88;;;2.30;;
70414;SDS011;57837;52.064;113.478;2023-02-12T19:56:12;7.27;;;2.20;;
70414;SDS011;57837;52.064;113.478;2023-02-12T19:59:18;5.60;;;2.53;;
70414;SDS011;57837;52.064;113.478;2023-02-12T20:02:22;10.50;;;2.08;;
70414;SDS011;57837;52.064;113.478;2023-02-12T20:05:25;8.38;;;2.83;;
70414;SDS011;57837;52.064;113.478;2023-02-12T20:08:28;8.35;;;2.40;;
70414;SDS011;57837;52.064;113.478;2023-02-12T20:11:32;6.65;;;3.08;;
70414;SDS011;57837;52.064;113.478;2023-02-12T20:14:38;3.97;;;2.03;;
70414;SDS011;57837;52.064;113.478;2023-02-12T20:17:42;9.97;;;3.43;;
70414;SDS011;57837;52.064;113.478;2023-02-12T20:20:45;6.90;;;2.45;;